sensor_id;sensor_type;location;lat;lon;timestamp;temperature;humidity
13686;DHT22;6915;48.296;8.874;2023-05-15T00:00:05;7.00;99.90
13686;DHT22;6915;48.296;8.874;2023-05-15T00:02:38;6.90;99.90
13686;DHT22;6915;48.296;8.874;2023-05-15T00:05:11;6.80;99.90
13686;DHT22;6915;48.296;8.874;2023-05-15T00:07:40;6.70;99.90
13686;DHT22;6915;48.296;8.874;2023-05-15T00:10:11;6.80;99.90
13686;DHT22;6915;48.296;8.874;2023-05-15T00:12:40;6.70;99.90
13686;DHT22;6915;48.296;8.874;2023-05-15T00:15:12;6.70;99.90
13686;DHT22;6915;48.296;8.874;2023-05-15T00:17:44;6.60;99.90
13686;DHT22;6915;48.296;8.874;2023-05-15T00:20:13;6.60;99.90
13686;DHT22;6915;48.296;8.874;2023-05-15T00:22:42;6.40;99.90
13686;DHT22;6915;48.296;8.874;2023-05-15T00:25:11;6.50;99.90
13686;DHT22;6915;48.296;8.874;2023-05-15T00:27:40;6.40;99.90
13686;DHT22;6915;48.296;8.874;2023-05-15T00:30:10;6.40;99.90
13686;DHT22;6915;48.296;8.874;2023-05-15T00:32:38;6.40;99.90
13686;DHT22;6915;48.296;8.874;2023-05-15T00:35:10;6.50;99.90
13686;DHT22;6915;48.296;8.874;2023-05-15T00:37:38;6.50;99.90
13686;DHT22;6915;48.296;8.874;2023-05-15T00:40:09;6.60;99.90
13686;DHT22;6915;48.296;8.874;2023-05-15T00:42:40;6.50;99.90
13686;DHT22;6915;48.296;8.874;2023-05-15T00:45:11;6.50;99.90
13686;DHT22;6915;48.296;8.874;2023-05-15T00:48:12;6.50;99.90
13686;DHT22;6915;48.296;8.874;2023-05-15T00:50:45;6.50;99.90
13686;DHT22;6915;48.296;8.874;2023-05-15T00:53:14;6.50;99.90
13686;DHT22;6915;48.296;8.874;2023-05-15T00:55:44;6.40;99.90
13686;DHT22;6915;48.296;8.874;2023-05-15T00:58:15;6.40;99.90
13686;DHT22;6915;48.296;8.874;2023-05-15T01:00:46;6.50;99.90
13686;DHT22;6915;48.296;8.874;2023-05-15T01:03:15;6.40;99.90
13686;DHT22;6915;48.296;8.874;2023-05-15T01:05:46;6.40;99.90
13686;DHT22;6915;48.296;8.874;2023-05-15T01:08:18;6.40;99.90
13686;DHT22;6915;48.296;8.874;2023-05-15T01:10:49;6.70;99.90
13686;DHT22;6915;48.296;8.874;2023-05-15T01:13:18;6.50;99.90
13686;DHT22;6915;48.296;8.874;2023-05-15T01:15:47;6.50;99.90
13686;DHT22;6915;48.296;8.874;2023-05-15T01:18:16;6.50;99.90
13686;DHT22;6915;48.296;8.874;2023-05-15T01:21:00;6.60;99.90
13686;DHT22;6915;48.296;8.874;2023-05-15T01:23:45;6.70;99.90
13686;DHT22;6915;48.296;8.874;2023-05-15T01:26:39;6.60;99.90
13686;DHT22;6915;48.296;8.874;2023-05-15T01:29:19;6.60;99.90
13686;DHT22;6915;48.296;8.874;2023-05-15T01:31:53;6.60;99.90
13686;DHT22;6915;48.296;8.874;2023-05-15T01:34:28;6.80;99.90
13686;DHT22;6915;48.296;8.874;2023-05-15T01:37:03;6.70;99.90
13686;DHT22;6915;48.296;8.874;2023-05-15T01:39:34;6.80;99.90
13686;DHT22;6915;48.296;8.874;2023-05-15T01:42:05;6.80;99.90
13686;DHT22;6915;48.296;8.874;2023-05-15T01:44:39;6.90;99.90
13686;DHT22;6915;48.296;8.874;2023-05-15T01:47:14;6.90;99.90
13686;DHT22;6915;48.296;8.874;2023-05-15T01:49:45;6.80;99.90
13686;DHT22;6915;48.296;8.874;2023-05-15T01:52:18;7.00;99.90
13686;DHT22;6915;48.296;8.874;2023-05-15T01:54:50;7.00;99.90
13686;DHT22;6915;48.296;8.874;2023-05-15T01:57:20;7.00;99.90
13686;DHT22;6915;48.296;8.874;2023-05-15T01:59:51;7.10;99.90
13686;DHT22;6915;48.296;8.874;2023-05-15T02:02:20;7.00;99.90
13686;DHT22;6915;48.296;8.874;2023-05-15T02:04:51;7.00;99.90
13686;DHT22;6915;48.296;8.874;2023-05-15T02:07:20;6.90;99.90
13686;DHT22;6915;48.296;8.874;2023-05-15T02:09:51;6.90;99.90
13686;DHT22;6915;48.296;8.874;2023-05-15T02:12:20;6.90;99.90
13686;DHT22;6915;48.296;8.874;2023-05-15T02:14:52;6.90;99.90
13686;DHT22;6915;48.296;8.874;2023-05-15T02:17:22;7.00;99.90
13686;DHT22;6915;48.296;8.874;2023-05-15T02:19:51;7.00;99.90
13686;DHT22;6915;48.296;8.874;2023-05-15T02:22:20;7.00;99.90
13686;DHT22;6915;48.296;8.874;2023-05-15T02:24:49;7.10;99.90
13686;DHT22;6915;48.296;8.874;2023-05-15T02:27:21;7.00;99.90
13686;DHT22;6915;48.296;8.874;2023-05-15T02:30:00;7.20;99.90
13686;DHT22;6915;48.296;8.874;2023-05-15T02:32:34;7.20;99.90
13686;DHT22;6915;48.296;8.874;2023-05-15T02:35:13;7.20;99.90
13686;DHT22;6915;48.296;8.874;2023-05-15T02:37:46;7.30;99.90
13686;DHT22;6915;48.296;8.874;2023-05-15T02:40:17;7.30;99.90
13686;DHT22;6915;48.296;8.874;2023-05-15T02:42:49;7.40;99.90
13686;DHT22;6915;48.296;8.874;2023-05-15T02:45:21;7.50;99.90
13686;DHT22;6915;48.296;8.874;2023-05-15T02:47:51;7.40;99.90
13686;DHT22;6915;48.296;8.874;2023-05-15T02:50:20;7.50;99.90
13686;DHT22;6915;48.296;8.874;2023-05-15T02:52:49;7.50;99.90
13686;DHT22;6915;48.296;8.874;2023-05-15T02:55:18;7.50;99.90
13686;DHT22;6915;48.296;8.874;2023-05-15T02:57:47;7.40;99.90
13686;DHT22;6915;48.296;8.874;2023-05-15T03:00:16;7.50;99.90
13686;DHT22;6915;48.296;8.874;2023-05-15T03:02:46;7.60;99.90
13686;DHT22;6915;48.296;8.874;2023-05-15T03:05:15;7.70;99.90
13686;DHT22;6915;48.296;8.874;2023-05-15T03:07:44;7.60;99.90
13686;DHT22;6915;48.296;8.874;2023-05-15T03:10:13;7.60;99.90
13686;DHT22;6915;48.296;8.874;2023-05-15T03:12:41;7.70;99.90
13686;DHT22;6915;48.296;8.874;2023-05-15T03:15:10;7.60;99.90
13686;DHT22;6915;48.296;8.874;2023-05-15T03:17:39;7.70;99.90
13686;DHT22;6915;48.296;8.874;2023-05-15T03:20:09;7.70;99.90
13686;DHT22;6915;48.296;8.874;2023-05-15T03:22:40;7.80;99.90
13686;DHT22;6915;48.296;8.874;2023-05-15T03:25:11;7.80;99.90
13686;DHT22;6915;48.296;8.874;2023-05-15T03:27:40;7.80;99.90
13686;DHT22;6915;48.296;8.874;2023-05-15T03:30:11;8.00;99.90
13686;DHT22;6915;48.296;8.874;2023-05-15T03:32:39;7.80;99.90
13686;DHT22;6915;48.296;8.874;2023-05-15T03:35:11;7.80;99.90
13686;DHT22;6915;48.296;8.874;2023-05-15T03:37:40;7.90;99.90
13686;DHT22;6915;48.296;8.874;2023-05-15T03:40:09;7.90;99.90
13686;DHT22;6915;48.296;8.874;2023-05-15T03:42:38;7.90;99.90
13686;DHT22;6915;48.296;8.874;2023-05-15T03:45:06;7.90;99.90
13686;DHT22;6915;48.296;8.874;2023-05-15T03:47:35;8.00;99.90
13686;DHT22;6915;48.296;8.874;2023-05-15T03:50:04;8.00;99.90
13686;DHT22;6915;48.296;8.874;2023-05-15T03:52:35;8.00;99.90
13686;DHT22;6915;48.296;8.874;2023-05-15T03:55:04;8.00;99.90
13686;DHT22;6915;48.296;8.874;2023-05-15T03:57:33;8.00;99.90
13686;DHT22;6915;48.296;8.874;2023-05-15T04:00:02;8.10;99.90
13686;DHT22;6915;48.296;8.874;2023-05-15T04:02:36;8.10;99.90
13686;DHT22;6915;48.296;8.874;2023-05-15T04:05:06;8.10;99.90
13686;DHT22;6915;48.296;8.874;2023-05-15T04:07:38;8.20;99.90
13686;DHT22;6915;48.296;8.874;2023-05-15T04:25:41;8.50;99.90
13686;DHT22;6915;48.296;8.874;2023-05-15T04:28:12;8.60;99.90
13686;DHT22;6915;48.296;8.874;2023-05-15T04:30:42;8.60;99.90
13686;DHT22;6915;48.296;8.874;2023-05-15T04:43:33;8.80;99.90
13686;DHT22;6915;48.296;8.874;2023-05-15T04:46:02;8.80;99.90
13686;DHT22;6915;48.296;8.874;2023-05-15T04:48:31;8.90;99.90
13686;DHT22;6915;48.296;8.874;2023-05-15T04:51:00;8.90;99.90
13686;DHT22;6915;48.296;8.874;2023-05-15T04:53:30;8.90;99.90
13686;DHT22;6915;48.296;8.874;2023-05-15T04:55:59;9.00;99.90
13686;DHT22;6915;48.296;8.874;2023-05-15T04:58:28;9.00;99.90
13686;DHT22;6915;48.296;8.874;2023-05-15T05:00:58;9.00;99.90
13686;DHT22;6915;48.296;8.874;2023-05-15T05:03:27;9.00;99.90
13686;DHT22;6915;48.296;8.874;2023-05-15T05:05:56;9.10;99.90
13686;DHT22;6915;48.296;8.874;2023-05-15T05:13:33;9.30;99.90
13686;DHT22;6915;48.296;8.874;2023-05-15T05:16:08;9.30;99.90
13686;DHT22;6915;48.296;8.874;2023-05-15T05:18:36;9.30;99.90
13686;DHT22;6915;48.296;8.874;2023-05-15T05:21:05;9.40;99.90
13686;DHT22;6915;48.296;8.874;2023-05-15T05:23:34;9.40;99.90
13686;DHT22;6915;48.296;8.874;2023-05-15T05:26:03;9.50;99.90
13686;DHT22;6915;48.296;8.874;2023-05-15T05:28:31;9.60;99.90
13686;DHT22;6915;48.296;8.874;2023-05-15T05:31:01;9.60;99.90
13686;DHT22;6915;48.296;8.874;2023-05-15T05:33:31;9.70;99.90
13686;DHT22;6915;48.296;8.874;2023-05-15T05:36:00;9.70;99.90
13686;DHT22;6915;48.296;8.874;2023-05-15T05:38:28;9.70;99.90
13686;DHT22;6915;48.296;8.874;2023-05-15T05:40:57;9.70;99.90
13686;DHT22;6915;48.296;8.874;2023-05-15T05:43:27;9.80;99.90
13686;DHT22;6915;48.296;8.874;2023-05-15T05:46:00;9.80;99.90
13686;DHT22;6915;48.296;8.874;2023-05-15T05:48:31;9.90;99.90
13686;DHT22;6915;48.296;8.874;2023-05-15T05:50:59;9.90;99.90
13686;DHT22;6915;48.296;8.874;2023-05-15T05:53:28;9.90;99.90
13686;DHT22;6915;48.296;8.874;2023-05-15T05:58:32;10.00;99.90
13686;DHT22;6915;48.296;8.874;2023-05-15T06:01:01;10.00;99.90
13686;DHT22;6915;48.296;8.874;2023-05-15T06:03:31;10.10;99.90
13686;DHT22;6915;48.296;8.874;2023-05-15T06:06:00;10.00;99.90
13686;DHT22;6915;48.296;8.874;2023-05-15T06:08:29;10.10;99.90
13686;DHT22;6915;48.296;8.874;2023-05-15T06:11:15;10.20;99.90
13686;DHT22;6915;48.296;8.874;2023-05-15T08:08:08;16.20;99.90
13686;DHT22;6915;48.296;8.874;2023-05-15T08:10:38;16.30;99.90
13686;DHT22;6915;48.296;8.874;2023-05-15T08:13:10;16.50;99.90
13686;DHT22;6915;48.296;8.874;2023-05-15T08:15:44;16.60;99.90
13686;DHT22;6915;48.296;8.874;2023-05-15T08:18:13;16.40;99.90
13686;DHT22;6915;48.296;8.874;2023-05-15T08:20:43;16.50;99.90
13686;DHT22;6915;48.296;8.874;2023-05-15T08:23:41;17.10;99.90
13686;DHT22;6915;48.296;8.874;2023-05-15T08:26:24;17.20;99.90
13686;DHT22;6915;48.296;8.874;2023-05-15T08:28:53;17.30;99.90
13686;DHT22;6915;48.296;8.874;2023-05-15T08:31:23;17.00;99.90
13686;DHT22;6915;48.296;8.874;2023-05-15T08:33:52;16.80;99.90
13686;DHT22;6915;48.296;8.874;2023-05-15T08:36:22;16.90;99.90
13686;DHT22;6915;48.296;8.874;2023-05-15T08:39:19;17.10;99.90
13686;DHT22;6915;48.296;8.874;2023-05-15T08:41:54;17.10;99.90
13686;DHT22;6915;48.296;8.874;2023-05-15T08:44:24;16.80;99.90
13686;DHT22;6915;48.296;8.874;2023-05-15T08:46:54;16.70;99.90
13686;DHT22;6915;48.296;8.874;2023-05-15T08:49:32;16.70;99.90
13686;DHT22;6915;48.296;8.874;2023-05-15T08:52:03;16.50;99.90
13686;DHT22;6915;48.296;8.874;2023-05-15T08:54:34;16.50;99.90
13686;DHT22;6915;48.296;8.874;2023-05-15T08:57:04;16.30;99.90
13686;DHT22;6915;48.296;8.874;2023-05-15T08:59:33;16.20;99.90
13686;DHT22;6915;48.296;8.874;2023-05-15T09:02:03;16.20;99.90
13686;DHT22;6915;48.296;8.874;2023-05-15T09:04:35;16.20;99.90
13686;DHT22;6915;48.296;8.874;2023-05-15T09:07:34;16.40;99.90
13686;DHT22;6915;48.296;8.874;2023-05-15T09:10:12;17.00;99.90
13686;DHT22;6915;48.296;8.874;2023-05-15T09:12:59;17.40;99.90
13686;DHT22;6915;48.296;8.874;2023-05-15T09:31:13;17.80;99.90
13686;DHT22;6915;48.296;8.874;2023-05-15T09:34:00;18.40;99.90
13686;DHT22;6915;48.296;8.874;2023-05-15T09:36:45;18.50;99.90
13686;DHT22;6915;48.296;8.874;2023-05-15T09:39:42;18.30;99.90
13686;DHT22;6915;48.296;8.874;2023-05-15T09:42:45;18.30;99.90
13686;DHT22;6915;48.296;8.874;2023-05-15T09:48:44;18.60;99.90
13686;DHT22;6915;48.296;8.874;2023-05-15T09:51:28;18.90;99.90
13686;DHT22;6915;48.296;8.874;2023-05-15T09:54:31;18.90;99.90
13686;DHT22;6915;48.296;8.874;2023-05-15T09:57:11;17.80;99.90
13686;DHT22;6915;48.296;8.874;2023-05-15T09:59:51;16.90;99.90
13686;DHT22;6915;48.296;8.874;2023-05-15T10:02:24;16.30;99.90
13686;DHT22;6915;48.296;8.874;2023-05-15T10:04:59;15.70;99.90
13686;DHT22;6915;48.296;8.874;2023-05-15T10:07:29;15.40;99.90
13686;DHT22;6915;48.296;8.874;2023-05-15T10:10:00;15.20;99.90
13686;DHT22;6915;48.296;8.874;2023-05-15T10:12:36;15.10;99.90
13686;DHT22;6915;48.296;8.874;2023-05-15T10:15:04;15.00;99.90
13686;DHT22;6915;48.296;8.874;2023-05-15T10:17:35;14.80;99.90
13686;DHT22;6915;48.296;8.874;2023-05-15T10:20:09;14.60;99.90
13686;DHT22;6915;48.296;8.874;2023-05-15T10:22:39;14.60;99.90
13686;DHT22;6915;48.296;8.874;2023-05-15T10:25:12;14.60;99.90
13686;DHT22;6915;48.296;8.874;2023-05-15T10:27:43;14.60;99.90
13686;DHT22;6915;48.296;8.874;2023-05-15T10:30:16;14.80;99.90
13686;DHT22;6915;48.296;8.874;2023-05-15T10:32:45;15.10;99.90
13686;DHT22;6915;48.296;8.874;2023-05-15T10:35:17;15.40;99.90
13686;DHT22;6915;48.296;8.874;2023-05-15T10:37:47;15.50;99.90
13686;DHT22;6915;48.296;8.874;2023-05-15T10:40:17;15.70;99.90
13686;DHT22;6915;48.296;8.874;2023-05-15T10:42:47;15.70;99.90
13686;DHT22;6915;48.296;8.874;2023-05-15T10:45:17;15.80;99.90
13686;DHT22;6915;48.296;8.874;2023-05-15T10:47:46;15.80;99.90
13686;DHT22;6915;48.296;8.874;2023-05-15T10:50:17;15.90;99.90
13686;DHT22;6915;48.296;8.874;2023-05-15T10:52:46;16.00;99.90
13686;DHT22;6915;48.296;8.874;2023-05-15T10:55:19;16.20;99.90
13686;DHT22;6915;48.296;8.874;2023-05-15T10:57:48;16.40;99.90
13686;DHT22;6915;48.296;8.874;2023-05-15T11:00:26;16.50;99.90
13686;DHT22;6915;48.296;8.874;2023-05-15T11:02:55;16.60;99.90
13686;DHT22;6915;48.296;8.874;2023-05-15T11:05:28;17.00;99.90
13686;DHT22;6915;48.296;8.874;2023-05-15T11:08:23;17.30;99.90
13686;DHT22;6915;48.296;8.874;2023-05-15T11:10:53;17.40;99.90
13686;DHT22;6915;48.296;8.874;2023-05-15T11:13:27;17.50;99.90
13686;DHT22;6915;48.296;8.874;2023-05-15T11:19:30;17.20;99.90
13686;DHT22;6915;48.296;8.874;2023-05-15T11:22:01;17.20;99.90
13686;DHT22;6915;48.296;8.874;2023-05-15T11:24:31;17.40;99.90
13686;DHT22;6915;48.296;8.874;2023-05-15T11:27:01;17.80;99.90
13686;DHT22;6915;48.296;8.874;2023-05-15T11:29:30;18.20;99.90
13686;DHT22;6915;48.296;8.874;2023-05-15T11:32:00;18.30;99.90
13686;DHT22;6915;48.296;8.874;2023-05-15T11:34:34;18.50;99.90
13686;DHT22;6915;48.296;8.874;2023-05-15T11:37:03;18.50;99.90
13686;DHT22;6915;48.296;8.874;2023-05-15T11:39:39;18.70;99.90
13686;DHT22;6915;48.296;8.874;2023-05-15T11:42:13;19.10;99.90
13686;DHT22;6915;48.296;8.874;2023-05-15T11:44:42;18.80;99.90
13686;DHT22;6915;48.296;8.874;2023-05-15T11:47:25;18.80;99.90
13686;DHT22;6915;48.296;8.874;2023-05-15T11:50:13;18.90;99.90
13686;DHT22;6915;48.296;8.874;2023-05-15T11:53:03;18.90;99.90
13686;DHT22;6915;48.296;8.874;2023-05-15T11:58:52;18.10;99.90
13686;DHT22;6915;48.296;8.874;2023-05-15T12:01:40;17.80;99.90
13686;DHT22;6915;48.296;8.874;2023-05-15T12:04:16;17.80;99.90
13686;DHT22;6915;48.296;8.874;2023-05-15T12:06:52;17.80;99.90
13686;DHT22;6915;48.296;8.874;2023-05-15T12:09:34;17.90;99.90
13686;DHT22;6915;48.296;8.874;2023-05-15T12:12:25;17.90;99.90
13686;DHT22;6915;48.296;8.874;2023-05-15T12:15:01;17.80;99.90
13686;DHT22;6915;48.296;8.874;2023-05-15T12:17:53;17.80;99.90
13686;DHT22;6915;48.296;8.874;2023-05-15T12:20:46;17.90;99.90
13686;DHT22;6915;48.296;8.874;2023-05-15T12:23:25;17.80;99.90
13686;DHT22;6915;48.296;8.874;2023-05-15T12:26:18;18.00;99.90
13686;DHT22;6915;48.296;8.874;2023-05-15T12:29:08;18.20;99.90
13686;DHT22;6915;48.296;8.874;2023-05-15T12:31:39;18.30;99.90
13686;DHT22;6915;48.296;8.874;2023-05-15T12:34:08;18.40;99.90
13686;DHT22;6915;48.296;8.874;2023-05-15T12:36:43;18.50;99.90
13686;DHT22;6915;48.296;8.874;2023-05-15T12:39:14;18.60;99.90
13686;DHT22;6915;48.296;8.874;2023-05-15T12:41:44;18.70;99.90
13686;DHT22;6915;48.296;8.874;2023-05-15T12:44:17;18.60;99.90
13686;DHT22;6915;48.296;8.874;2023-05-15T12:46:46;18.30;99.90
13686;DHT22;6915;48.296;8.874;2023-05-15T12:49:22;18.20;99.90
13686;DHT22;6915;48.296;8.874;2023-05-15T12:51:52;18.10;99.90
13686;DHT22;6915;48.296;8.874;2023-05-15T12:54:22;17.90;99.90
13686;DHT22;6915;48.296;8.874;2023-05-15T12:56:51;17.90;99.90
13686;DHT22;6915;48.296;8.874;2023-05-15T12:59:19;18.10;99.90
13686;DHT22;6915;48.296;8.874;2023-05-15T13:01:48;18.40;99.90
13686;DHT22;6915;48.296;8.874;2023-05-15T13:04:18;18.50;99.90
13686;DHT22;6915;48.296;8.874;2023-05-15T13:07:01;18.80;99.90
13686;DHT22;6915;48.296;8.874;2023-05-15T13:09:33;19.40;99.90
13686;DHT22;6915;48.296;8.874;2023-05-15T13:12:03;19.60;99.90
13686;DHT22;6915;48.296;8.874;2023-05-15T13:14:35;19.50;99.90
13686;DHT22;6915;48.296;8.874;2023-05-15T13:17:03;19.30;99.90
13686;DHT22;6915;48.296;8.874;2023-05-15T13:19:35;19.40;99.90
13686;DHT22;6915;48.296;8.874;2023-05-15T13:22:05;19.20;99.90
13686;DHT22;6915;48.296;8.874;2023-05-15T13:24:36;19.40;99.90
13686;DHT22;6915;48.296;8.874;2023-05-15T13:27:05;19.50;99.90
13686;DHT22;6915;48.296;8.874;2023-05-15T13:29:33;19.50;99.90
13686;DHT22;6915;48.296;8.874;2023-05-15T13:32:05;19.80;99.90
13686;DHT22;6915;48.296;8.874;2023-05-15T13:34:34;20.10;99.90
13686;DHT22;6915;48.296;8.874;2023-05-15T13:37:16;20.30;99.90
13686;DHT22;6915;48.296;8.874;2023-05-15T13:39:48;19.80;99.90
13686;DHT22;6915;48.296;8.874;2023-05-15T13:42:22;20.10;99.90
13686;DHT22;6915;48.296;8.874;2023-05-15T13:44:54;20.20;99.90
13686;DHT22;6915;48.296;8.874;2023-05-15T13:47:23;20.40;99.90
13686;DHT22;6915;48.296;8.874;2023-05-15T13:49:53;20.40;99.90
13686;DHT22;6915;48.296;8.874;2023-05-15T13:52:29;20.20;99.90
13686;DHT22;6915;48.296;8.874;2023-05-15T13:55:06;20.00;99.90
13686;DHT22;6915;48.296;8.874;2023-05-15T13:57:42;20.00;99.90
13686;DHT22;6915;48.296;8.874;2023-05-15T14:00:13;20.00;99.90
13686;DHT22;6915;48.296;8.874;2023-05-15T14:02:43;19.70;99.90
13686;DHT22;6915;48.296;8.874;2023-05-15T14:05:32;19.40;99.90
13686;DHT22;6915;48.296;8.874;2023-05-15T14:08:14;19.00;99.90
13686;DHT22;6915;48.296;8.874;2023-05-15T14:10:43;18.40;99.90
13686;DHT22;6915;48.296;8.874;2023-05-15T14:13:14;18.00;99.90
13686;DHT22;6915;48.296;8.874;2023-05-15T14:15:51;17.80;99.90
13686;DHT22;6915;48.296;8.874;2023-05-15T14:18:22;17.70;99.90
13686;DHT22;6915;48.296;8.874;2023-05-15T14:20:51;17.90;99.90
13686;DHT22;6915;48.296;8.874;2023-05-15T14:23:23;18.10;99.90
13686;DHT22;6915;48.296;8.874;2023-05-15T14:25:53;18.20;99.90
13686;DHT22;6915;48.296;8.874;2023-05-15T14:28:32;18.10;99.90
13686;DHT22;6915;48.296;8.874;2023-05-15T14:31:21;17.90;99.90
13686;DHT22;6915;48.296;8.874;2023-05-15T14:33:54;18.00;99.90
13686;DHT22;6915;48.296;8.874;2023-05-15T14:36:29;17.80;99.90
13686;DHT22;6915;48.296;8.874;2023-05-15T14:39:10;17.60;99.90
13686;DHT22;6915;48.296;8.874;2023-05-15T14:41:54;17.50;99.90
13686;DHT22;6915;48.296;8.874;2023-05-15T14:44:29;17.30;99.90
13686;DHT22;6915;48.296;8.874;2023-05-15T14:47:13;17.20;99.90
13686;DHT22;6915;48.296;8.874;2023-05-15T14:49:43;17.10;99.90
13686;DHT22;6915;48.296;8.874;2023-05-15T14:52:12;17.10;99.90
13686;DHT22;6915;48.296;8.874;2023-05-15T14:54:54;17.00;99.90
13686;DHT22;6915;48.296;8.874;2023-05-15T14:57:27;17.20;99.90
13686;DHT22;6915;48.296;8.874;2023-05-15T15:00:00;17.40;99.90
13686;DHT22;6915;48.296;8.874;2023-05-15T15:02:36;17.60;99.90
13686;DHT22;6915;48.296;8.874;2023-05-15T15:05:04;17.60;99.90
13686;DHT22;6915;48.296;8.874;2023-05-15T15:08:01;17.60;99.90
13686;DHT22;6915;48.296;8.874;2023-05-15T15:10:33;17.40;99.90
13686;DHT22;6915;48.296;8.874;2023-05-15T15:13:02;17.40;99.90
13686;DHT22;6915;48.296;8.874;2023-05-15T15:15:32;17.40;99.90
13686;DHT22;6915;48.296;8.874;2023-05-15T15:18:01;17.70;99.90
13686;DHT22;6915;48.296;8.874;2023-05-15T15:20:39;17.70;99.90
13686;DHT22;6915;48.296;8.874;2023-05-15T15:23:20;17.50;99.90
13686;DHT22;6915;48.296;8.874;2023-05-15T15:25:52;17.40;99.90
13686;DHT22;6915;48.296;8.874;2023-05-15T15:28:21;17.30;99.90
13686;DHT22;6915;48.296;8.874;2023-05-15T15:30:50;17.50;99.90
13686;DHT22;6915;48.296;8.874;2023-05-15T15:33:18;17.60;99.90
13686;DHT22;6915;48.296;8.874;2023-05-15T15:35:49;17.90;99.90
13686;DHT22;6915;48.296;8.874;2023-05-15T15:38:19;18.00;99.90
13686;DHT22;6915;48.296;8.874;2023-05-15T15:40:50;18.20;99.90
13686;DHT22;6915;48.296;8.874;2023-05-15T15:43:20;18.40;99.90
13686;DHT22;6915;48.296;8.874;2023-05-15T15:45:48;18.40;99.90
13686;DHT22;6915;48.296;8.874;2023-05-15T15:48:17;18.40;99.90
13686;DHT22;6915;48.296;8.874;2023-05-15T15:50:47;18.40;99.90
13686;DHT22;6915;48.296;8.874;2023-05-15T15:53:16;18.30;99.90
13686;DHT22;6915;48.296;8.874;2023-05-15T15:55:47;18.40;99.90
13686;DHT22;6915;48.296;8.874;2023-05-15T15:58:19;18.30;99.90
13686;DHT22;6915;48.296;8.874;2023-05-15T16:01:02;18.50;99.90
13686;DHT22;6915;48.296;8.874;2023-05-15T16:03:43;18.80;99.90
13686;DHT22;6915;48.296;8.874;2023-05-15T16:06:16;18.60;99.90
13686;DHT22;6915;48.296;8.874;2023-05-15T16:08:52;18.40;99.90
13686;DHT22;6915;48.296;8.874;2023-05-15T16:11:21;18.60;99.90
13686;DHT22;6915;48.296;8.874;2023-05-15T16:13:51;18.60;99.90
13686;DHT22;6915;48.296;8.874;2023-05-15T16:16:20;18.70;99.90
13686;DHT22;6915;48.296;8.874;2023-05-15T16:18:49;18.50;99.90
13686;DHT22;6915;48.296;8.874;2023-05-15T16:21:18;18.50;99.90
13686;DHT22;6915;48.296;8.874;2023-05-15T16:23:46;18.40;99.90
13686;DHT22;6915;48.296;8.874;2023-05-15T16:26:15;18.40;99.90
13686;DHT22;6915;48.296;8.874;2023-05-15T16:28:43;18.30;99.90
13686;DHT22;6915;48.296;8.874;2023-05-15T16:31:14;18.40;99.90
13686;DHT22;6915;48.296;8.874;2023-05-15T16:33:43;18.50;99.90
13686;DHT22;6915;48.296;8.874;2023-05-15T16:36:12;18.30;99.90
13686;DHT22;6915;48.296;8.874;2023-05-15T16:38:40;18.20;99.90
13686;DHT22;6915;48.296;8.874;2023-05-15T16:41:09;18.10;99.90
13686;DHT22;6915;48.296;8.874;2023-05-15T16:43:38;18.00;99.90
13686;DHT22;6915;48.296;8.874;2023-05-15T16:46:07;18.00;99.90
13686;DHT22;6915;48.296;8.874;2023-05-15T16:48:37;17.80;99.90
13686;DHT22;6915;48.296;8.874;2023-05-15T16:51:06;17.50;99.90
13686;DHT22;6915;48.296;8.874;2023-05-15T16:53:35;17.10;99.90
13686;DHT22;6915;48.296;8.874;2023-05-15T16:56:06;16.80;99.90
13686;DHT22;6915;48.296;8.874;2023-05-15T16:58:42;16.60;99.90
13686;DHT22;6915;48.296;8.874;2023-05-15T17:01:10;16.40;99.90
13686;DHT22;6915;48.296;8.874;2023-05-15T17:03:40;16.30;99.90
13686;DHT22;6915;48.296;8.874;2023-05-15T17:06:09;16.40;99.90
13686;DHT22;6915;48.296;8.874;2023-05-15T17:08:38;16.40;99.90
13686;DHT22;6915;48.296;8.874;2023-05-15T17:11:08;16.40;99.90
13686;DHT22;6915;48.296;8.874;2023-05-15T17:13:37;16.40;99.90
13686;DHT22;6915;48.296;8.874;2023-05-15T17:16:06;16.40;99.90
13686;DHT22;6915;48.296;8.874;2023-05-15T17:18:35;16.60;99.90
13686;DHT22;6915;48.296;8.874;2023-05-15T17:21:07;16.80;99.90
13686;DHT22;6915;48.296;8.874;2023-05-15T19:18:36;11.50;99.90
13686;DHT22;6915;48.296;8.874;2023-05-15T19:21:05;11.40;99.90
13686;DHT22;6915;48.296;8.874;2023-05-15T19:23:34;11.30;99.90
13686;DHT22;6915;48.296;8.874;2023-05-15T19:26:03;11.30;99.90
13686;DHT22;6915;48.296;8.874;2023-05-15T19:28:32;11.20;99.90
13686;DHT22;6915;48.296;8.874;2023-05-15T19:31:02;11.10;99.90
13686;DHT22;6915;48.296;8.874;2023-05-15T19:33:32;11.10;99.90
13686;DHT22;6915;48.296;8.874;2023-05-15T19:36:02;11.10;99.90
13686;DHT22;6915;48.296;8.874;2023-05-15T19:38:31;11.10;99.90
13686;DHT22;6915;48.296;8.874;2023-05-15T19:41:00;11.00;99.90
13686;DHT22;6915;48.296;8.874;2023-05-15T19:43:28;11.00;99.90
13686;DHT22;6915;48.296;8.874;2023-05-15T19:46:03;10.90;99.90
13686;DHT22;6915;48.296;8.874;2023-05-15T19:48:32;10.90;99.90
13686;DHT22;6915;48.296;8.874;2023-05-15T19:51:02;11.00;99.90
13686;DHT22;6915;48.296;8.874;2023-05-15T19:53:33;11.00;99.90
13686;DHT22;6915;48.296;8.874;2023-05-15T19:56:02;10.90;99.90
13686;DHT22;6915;48.296;8.874;2023-05-15T19:58:33;10.90;99.90
13686;DHT22;6915;48.296;8.874;2023-05-15T20:01:02;11.00;99.90
13686;DHT22;6915;48.296;8.874;2023-05-15T20:03:31;11.00;99.90
13686;DHT22;6915;48.296;8.874;2023-05-15T20:06:02;11.00;99.90
13686;DHT22;6915;48.296;8.874;2023-05-15T20:08:35;10.90;99.90
13686;DHT22;6915;48.296;8.874;2023-05-15T20:11:04;11.00;99.90
13686;DHT22;6915;48.296;8.874;2023-05-15T20:13:32;10.90;99.90
13686;DHT22;6915;48.296;8.874;2023-05-15T20:16:02;11.10;99.90
13686;DHT22;6915;48.296;8.874;2023-05-15T20:18:35;10.70;99.90
13686;DHT22;6915;48.296;8.874;2023-05-15T20:21:07;10.80;99.90
13686;DHT22;6915;48.296;8.874;2023-05-15T20:23:36;10.80;99.90
13686;DHT22;6915;48.296;8.874;2023-05-15T20:26:06;10.70;99.90
13686;DHT22;6915;48.296;8.874;2023-05-15T20:28:36;10.70;99.90
13686;DHT22;6915;48.296;8.874;2023-05-15T20:31:05;10.60;99.90
13686;DHT22;6915;48.296;8.874;2023-05-15T20:33:33;10.60;99.90
13686;DHT22;6915;48.296;8.874;2023-05-15T20:36:04;10.50;99.90
13686;DHT22;6915;48.296;8.874;2023-05-15T20:38:35;10.40;99.90
13686;DHT22;6915;48.296;8.874;2023-05-15T20:41:05;10.30;99.90
13686;DHT22;6915;48.296;8.874;2023-05-15T20:43:35;10.20;99.90
13686;DHT22;6915;48.296;8.874;2023-05-15T20:46:04;10.10;99.90
13686;DHT22;6915;48.296;8.874;2023-05-15T20:48:34;10.10;99.90
13686;DHT22;6915;48.296;8.874;2023-05-15T20:51:03;10.10;99.90
13686;DHT22;6915;48.296;8.874;2023-05-15T20:53:34;10.10;99.90
13686;DHT22;6915;48.296;8.874;2023-05-15T20:56:03;9.90;99.90
13686;DHT22;6915;48.296;8.874;2023-05-15T20:58:32;10.00;99.90
13686;DHT22;6915;48.296;8.874;2023-05-15T21:01:00;9.90;99.90
13686;DHT22;6915;48.296;8.874;2023-05-15T21:03:29;9.80;99.90
13686;DHT22;6915;48.296;8.874;2023-05-15T21:05:58;9.70;99.90
13686;DHT22;6915;48.296;8.874;2023-05-15T21:08:28;9.70;99.90
13686;DHT22;6915;48.296;8.874;2023-05-15T21:10:58;9.70;99.90
13686;DHT22;6915;48.296;8.874;2023-05-15T21:13:28;9.70;99.90